createdAt,value
2023-04-01T00:01:22.832Z,96947.78
2023-04-01T00:03:49.528Z,96938.81
2023-04-01T00:06:18.619Z,96948.56
2023-04-01T00:08:45.806Z,96938.41
2023-04-01T00:11:12.786Z,96938.81
2023-04-01T00:13:39.371Z,96947.09
2023-04-01T00:16:13.831Z,96945.03
2023-04-01T00:18:50.983Z,96939.13
2023-04-01T00:21:18.409Z,96942.13
2023-04-01T00:23:45.044Z,96946.91
2023-04-01T00:26:13.145Z,96938.03
2023-04-01T00:28:40.454Z,96943.72
2023-04-01T00:31:08.498Z,96948.13
2023-04-01T00:33:35.649Z,96947.56
2023-04-01T00:36:13.457Z,96948.50
2023-04-01T00:38:40.052Z,96954.13
2023-04-01T00:41:07.188Z,96960.63
2023-04-01T00:43:34.653Z,96960.91
2023-04-01T00:46:01.525Z,96960.13
2023-04-01T00:48:31.727Z,96958.22
2023-04-01T00:51:04.403Z,96958.94
2023-04-01T00:53:31.995Z,96960.78
2023-04-01T00:56:06.116Z,96960.88
2023-04-01T00:58:36.623Z,96964.41
2023-04-01T01:01:03.279Z,96962.06
2023-04-01T01:03:29.993Z,96960.22
2023-04-01T01:06:24.649Z,96944.63
2023-04-01T01:09:11.648Z,96957.09
2023-04-01T01:11:44.198Z,96951.91
2023-04-01T01:14:25.341Z,96956.50
2023-04-01T01:16:57.529Z,96959.16
2023-04-01T01:19:36.493Z,96954.94
2023-04-01T01:22:23.213Z,96961.94
2023-04-01T01:24:58.817Z,96956.28
2023-04-01T01:27:25.536Z,96958.81
2023-04-01T01:30:16.657Z,96960.59
2023-04-01T01:33:11.322Z,96954.13
2023-04-01T01:35:50.884Z,96951.94
2023-04-01T01:38:24.205Z,96955.13
2023-04-01T01:40:58.696Z,96957.63
2023-04-01T01:43:27.785Z,96967.34
2023-04-01T01:45:57.175Z,96959.69
2023-04-01T01:48:25.910Z,96962.06
2023-04-01T01:50:53.011Z,96958.59
2023-04-01T01:53:19.778Z,96962.69
2023-04-01T01:55:47.687Z,96968.44
2023-04-01T01:58:20.266Z,96962.63
2023-04-01T02:00:52.494Z,96962.66
2023-04-01T02:03:21.350Z,96959.16
2023-04-01T02:05:49.322Z,96965.84
2023-04-01T02:08:19.554Z,96952.78
2023-04-01T02:10:52.055Z,96962.97
2023-04-01T02:13:28.492Z,96952.50
2023-04-01T02:16:00.063Z,96953.63
2023-04-01T02:18:26.996Z,96960.38
2023-04-01T02:20:54.053Z,96962.34
2023-04-01T02:23:21.202Z,96963.38
2023-04-01T02:25:48.165Z,96967.00
2023-04-01T02:28:17.548Z,96970.59
2023-04-01T02:30:44.806Z,96960.22
2023-04-01T02:33:11.623Z,96959.03
2023-04-01T02:35:38.859Z,96957.09
2023-04-01T02:38:07.505Z,96960.88
2023-04-01T02:41:04.534Z,96952.34
2023-04-01T02:43:32.113Z,96955.69
2023-04-01T02:45:58.746Z,96953.72
2023-04-01T02:48:25.643Z,96961.78
2023-04-01T02:50:52.190Z,96959.56
2023-04-01T02:53:18.812Z,96959.78
2023-04-01T02:55:45.977Z,96959.63
2023-04-01T02:58:12.707Z,96965.50
2023-04-01T03:00:39.907Z,96959.94
2023-04-01T03:03:06.619Z,96955.31
2023-04-01T03:05:33.442Z,96964.47
2023-04-01T03:08:03.746Z,96957.63
2023-04-01T03:10:30.442Z,96962.28
2023-04-01T03:12:56.991Z,96957.75
2023-04-01T03:15:23.560Z,96959.50
2023-04-01T03:17:50.766Z,96955.34
2023-04-01T03:20:18.006Z,96965.41
2023-04-01T03:22:44.664Z,96970.09
2023-04-01T03:25:11.530Z,96970.69
2023-04-01T03:27:38.522Z,96967.94
2023-04-01T03:30:06.870Z,96964.47
2023-04-01T03:32:39.037Z,96970.22
2023-04-01T03:35:06.455Z,96965.16
2023-04-01T03:37:33.113Z,96963.22
2023-04-01T03:39:59.639Z,96964.00
2023-04-01T03:42:26.664Z,96966.09
2023-04-01T03:44:54.055Z,96966.47
2023-04-01T03:47:20.700Z,96959.47
2023-04-01T03:49:47.618Z,96953.59
2023-04-01T03:52:14.261Z,96952.78
2023-04-01T03:54:40.892Z,96955.59
2023-04-01T03:57:07.854Z,96956.09
2023-04-01T03:59:35.185Z,96959.47
2023-04-01T04:02:02.318Z,96945.91
2023-04-01T04:04:29.201Z,96948.47
2023-04-01T04:06:56.199Z,96944.31
2023-04-01T04:09:23.909Z,96946.53
2023-04-01T04:11:50.808Z,96939.19
2023-04-01T04:14:17.711Z,96938.38
2023-04-01T04:16:45.597Z,96939.09
2023-04-01T04:19:12.219Z,96934.28
2023-04-01T04:21:38.901Z,96939.63
2023-04-01T04:24:05.774Z,96922.84
2023-04-01T04:26:52.352Z,96929.50
2023-04-01T04:29:18.928Z,96929.41
2023-04-01T04:31:45.702Z,96939.41
2023-04-01T04:34:12.618Z,96940.72
2023-04-01T04:36:39.212Z,96942.34
2023-04-01T04:39:05.856Z,96941.28
2023-04-01T04:41:35.957Z,96944.03
2023-04-01T04:44:05.047Z,96952.28
2023-04-01T04:46:32.344Z,96953.97
2023-04-01T04:49:08.877Z,96952.19
2023-04-01T04:51:36.854Z,96958.47
2023-04-01T04:54:04.564Z,96943.59
2023-04-01T04:56:45.293Z,96953.75
2023-04-01T04:59:12.006Z,96948.84
2023-04-01T05:01:48.082Z,96945.13
2023-04-01T05:04:14.864Z,96944.88
2023-04-01T05:06:41.617Z,96946.22
2023-04-01T05:09:08.175Z,96939.03
2023-04-01T05:11:34.803Z,96947.09
2023-04-01T05:14:01.345Z,96940.31
2023-04-01T05:16:28.680Z,96944.22
2023-04-01T05:18:55.304Z,96946.13
2023-04-01T05:21:22.429Z,96935.63
2023-04-01T05:23:49.058Z,96929.41
2023-04-01T05:26:16.079Z,96932.22
2023-04-01T05:28:43.120Z,96930.41
2023-04-01T05:31:10.018Z,96937.22
2023-04-01T05:33:39.493Z,96935.41
2023-04-01T05:36:14.619Z,96940.44
2023-04-01T05:38:43.410Z,96940.13
2023-04-01T05:41:12.098Z,96936.94
2023-04-01T05:43:43.214Z,96943.09
2023-04-01T05:46:28.608Z,96938.00
2023-04-01T05:49:17.261Z,96923.78
2023-04-01T05:51:43.858Z,96924.72
2023-04-01T05:54:10.590Z,96923.47
2023-04-01T05:56:38.022Z,96913.56
2023-04-01T05:59:04.559Z,96905.13
2023-04-01T06:01:31.141Z,96918.22
2023-04-01T06:03:57.812Z,96911.28
2023-04-01T06:06:28.205Z,96921.56
2023-04-01T06:09:11.494Z,96920.97
2023-04-01T06:12:06.082Z,96925.28
2023-04-01T06:14:38.670Z,96920.59
2023-04-01T06:17:38.944Z,96916.41
2023-04-01T06:20:30.683Z,96917.78
2023-04-01T06:23:19.451Z,96913.59
2023-04-01T06:26:04.350Z,96918.28
2023-04-01T06:28:44.459Z,96912.63
2023-04-01T06:31:43.783Z,96912.00
2023-04-01T06:34:30.680Z,96921.91
2023-04-01T06:37:24.628Z,96916.28
2023-04-01T06:39:51.278Z,96911.97
2023-04-01T06:42:35.496Z,96915.94
2023-04-01T06:45:13.435Z,96920.47
2023-04-01T06:48:32.984Z,96925.50
2023-04-01T06:52:05.750Z,96917.25
2023-04-01T06:54:56.889Z,96912.59
2023-04-01T06:58:13.087Z,96912.09
2023-04-01T07:00:49.018Z,96908.00
2023-04-01T07:03:36.581Z,96913.94
2023-04-01T07:06:08.658Z,96916.66
2023-04-01T07:08:40.921Z,96914.13
2023-04-01T07:11:10.300Z,96917.53
2023-04-01T07:14:27.494Z,96915.63
2023-04-01T07:17:31.226Z,96916.84
2023-04-01T07:20:04.249Z,96922.50
2023-04-01T07:22:34.832Z,96924.53
2023-04-01T07:25:26.250Z,96922.13
2023-04-01T07:28:15.695Z,96920.03
2023-04-01T07:31:00.671Z,96918.22
2023-04-01T07:33:40.983Z,96925.59
2023-04-01T07:36:29.001Z,96929.69
2023-04-01T07:39:13.800Z,96928.91
2023-04-01T07:42:43.412Z,96931.91
2023-04-01T07:45:30.610Z,96934.31
2023-04-01T07:48:10.250Z,96934.50
2023-04-01T07:50:45.238Z,96931.78
2023-04-01T07:53:31.932Z,96934.47
2023-04-01T07:56:13.416Z,96930.78
2023-04-01T07:58:54.186Z,96937.66
2023-04-01T08:01:51.229Z,96935.88
2023-04-01T08:04:26.608Z,96936.59
2023-04-01T08:07:35.007Z,96933.91
2023-04-01T08:10:23.993Z,96936.13
2023-04-01T08:13:39.773Z,96937.13
2023-04-01T08:16:50.452Z,96944.34
2023-04-01T08:19:35.610Z,96935.84
2023-04-01T08:22:12.721Z,96939.84
2023-04-01T08:24:47.987Z,96936.44
2023-04-01T08:27:26.063Z,96939.84
2023-04-01T08:30:00.932Z,96947.22
2023-04-01T08:32:38.205Z,96948.09
2023-04-01T08:35:28.881Z,96938.41
2023-04-01T08:38:02.401Z,96946.44
2023-04-01T08:41:06.923Z,96952.75
2023-04-01T08:44:26.049Z,96954.25
2023-04-01T08:47:23.514Z,96958.06
2023-04-01T08:50:03.321Z,96960.66
2023-04-01T08:53:15.812Z,96954.47
2023-04-01T08:55:53.380Z,96949.75
2023-04-01T08:58:51.099Z,96936.81
2023-04-01T09:01:36.089Z,96945.97
2023-04-01T09:04:10.874Z,96956.88
2023-04-01T09:07:16.203Z,96953.97
2023-04-01T09:09:51.293Z,96948.63
2023-04-01T09:12:46.562Z,96950.69
2023-04-01T09:15:19.228Z,96951.28
2023-04-01T09:18:07.323Z,96953.72
2023-04-01T09:20:33.944Z,96955.03
2023-04-01T09:23:40.977Z,96947.97
2023-04-01T09:26:16.532Z,96954.78
2023-04-01T09:28:54.089Z,96946.97
2023-04-01T09:31:51.781Z,96952.31
2023-04-01T09:34:57.758Z,96952.25
2023-04-01T09:37:35.371Z,96958.16
2023-04-01T09:40:31.636Z,96956.50
2023-04-01T09:43:28.404Z,96955.38
2023-04-01T09:46:18.724Z,96950.66
2023-04-01T09:49:15.606Z,96964.16
2023-04-01T09:52:10.259Z,96967.72
2023-04-01T09:54:44.680Z,96973.03
2023-04-01T09:57:30.885Z,96968.97
2023-04-01T10:00:14.294Z,96976.31
2023-04-01T10:03:24.741Z,96977.84
2023-04-01T10:06:14.901Z,96969.69
2023-04-01T10:09:23.818Z,96986.94
2023-04-01T10:11:55.434Z,96970.25
2023-04-01T10:14:25.765Z,96977.78
2023-04-01T10:17:34.865Z,96980.63
2023-04-01T10:20:26.151Z,96973.94
2023-04-01T10:23:14.718Z,96973.22
2023-04-01T10:26:19.140Z,96973.59
2023-04-01T10:29:10.428Z,96978.72
2023-04-01T10:32:22.248Z,96974.03
2023-04-01T10:35:30.698Z,96971.03
2023-04-01T10:38:16.269Z,96964.75
2023-04-01T10:40:58.863Z,96975.09
2023-04-01T10:44:23.007Z,96972.19
2023-04-01T10:47:24.021Z,96973.16
2023-04-01T10:50:28.553Z,96974.88
2023-04-01T10:53:16.781Z,96983.47
2023-04-01T10:56:16.558Z,96986.09
2023-04-01T10:59:14.535Z,96984.41
2023-04-01T11:02:22.859Z,96974.34
2023-04-01T11:05:34.248Z,96986.69
2023-04-01T11:08:33.710Z,96982.16
2023-04-01T11:11:37.689Z,96974.09
2023-04-01T11:14:32.941Z,96983.00
2023-04-01T11:17:21.921Z,96976.84
2023-04-01T11:20:09.386Z,96981.75
2023-04-01T11:22:51.667Z,96980.28
2023-04-01T11:25:26.363Z,96981.88
2023-04-01T11:28:34.824Z,96975.31
2023-04-01T11:31:20.030Z,96981.72
2023-04-01T11:34:21.472Z,96991.53
2023-04-01T11:36:48.263Z,96982.66
2023-04-01T11:39:35.758Z,96986.63
2023-04-01T11:43:07.959Z,96986.31
2023-04-01T11:46:02.388Z,96992.91
2023-04-01T11:48:38.090Z,96999.84
2023-04-01T11:51:16.812Z,96994.63
2023-04-01T11:54:07.458Z,96994.03
2023-04-01T11:56:51.269Z,97009.09
2023-04-01T11:59:55.329Z,96996.41
2023-04-01T12:02:29.265Z,97008.63
2023-04-01T12:05:05.090Z,97000.50
2023-04-01T12:07:58.792Z,97000.84
2023-04-01T12:10:38.884Z,97009.91
2023-04-01T12:13:28.470Z,97013.75
2023-04-01T12:16:25.513Z,97014.41
2023-04-01T12:19:09.285Z,97007.06
2023-04-01T12:22:07.091Z,97010.06
2023-04-01T12:25:01.616Z,97008.13
2023-04-01T12:27:41.603Z,97016.78
2023-04-01T12:30:30.032Z,97016.28
2023-04-01T12:33:17.585Z,97022.00
2023-04-01T12:35:47.055Z,97025.38
2023-04-01T12:38:56.640Z,97020.75
2023-04-01T12:41:48.763Z,97023.66
2023-04-01T12:44:21.396Z,97019.66
2023-04-01T12:47:25.165Z,97018.97
2023-04-01T12:50:17.896Z,97029.31
2023-04-01T12:53:04.251Z,97022.31
2023-04-01T12:55:45.475Z,97028.38
2023-04-01T12:58:45.469Z,97029.78
2023-04-01T13:01:25.514Z,97030.03
2023-04-01T13:04:39.961Z,97017.91
2023-04-01T13:07:28.278Z,97038.66
2023-04-01T13:10:34.611Z,97034.88
2023-04-01T13:13:12.011Z,97032.94
2023-04-01T13:15:43.707Z,97035.34
2023-04-01T13:18:28.777Z,97043.34
2023-04-01T13:21:10.085Z,97037.63
2023-04-01T13:23:55.022Z,97047.78
2023-04-01T13:26:43.648Z,97049.97
2023-04-01T13:29:17.714Z,97051.41
2023-04-01T13:32:12.069Z,97055.13
2023-04-01T13:34:56.668Z,97048.25
2023-04-01T13:37:51.290Z,97048.00
2023-04-01T13:40:49.255Z,97055.47
2023-04-01T13:43:32.911Z,97055.59
2023-04-01T13:46:02.593Z,97063.34
2023-04-01T13:48:59.534Z,97058.56
2023-04-01T13:51:44.981Z,97069.13
2023-04-01T13:54:30.484Z,97067.16
2023-04-01T13:57:09.213Z,97074.22
2023-04-01T14:00:00.942Z,97071.44
2023-04-01T14:02:54.498Z,97082.22
2023-04-01T14:05:45.431Z,97074.00
2023-04-01T14:08:33.858Z,97072.97
2023-04-01T14:11:33.506Z,97078.44
2023-04-01T14:14:21.942Z,97085.78
2023-04-01T14:16:56.250Z,97082.97
2023-04-01T14:19:26.393Z,97085.16
2023-04-01T14:22:26.992Z,97083.31
2023-04-01T14:25:24.307Z,97085.00
2023-04-01T14:28:18.565Z,97084.91
2023-04-01T14:31:06.883Z,97091.06
2023-04-01T14:33:59.127Z,97099.91
2023-04-01T14:37:06.446Z,97104.09
2023-04-01T14:39:54.651Z,97104.63
2023-04-01T14:42:39.228Z,97103.72
2023-04-01T14:45:13.797Z,97110.47
2023-04-01T14:47:59.930Z,97105.50
2023-04-01T14:50:31.758Z,97097.97
2023-04-01T14:53:17.512Z,97109.63
2023-04-01T14:55:43.989Z,97102.16
2023-04-01T14:58:15.605Z,97110.78
2023-04-01T15:00:52.670Z,97111.22
2023-04-01T15:03:22.031Z,97111.75
2023-04-01T15:06:07.359Z,97108.31
2023-04-01T15:08:36.975Z,97100.75
2023-04-01T15:11:23.104Z,97112.06
2023-04-01T15:14:06.288Z,97114.44
2023-04-01T15:16:51.626Z,97104.88
2023-04-01T15:19:43.414Z,97110.91
2023-04-01T15:22:47.961Z,97111.34
2023-04-01T15:25:26.408Z,97118.75
2023-04-01T15:28:00.398Z,97114.91
2023-04-01T15:31:14.393Z,97113.72
2023-04-01T15:34:02.015Z,97120.41
2023-04-01T15:36:46.449Z,97121.31
2023-04-01T15:39:23.804Z,97123.22
2023-04-01T15:42:02.500Z,97131.59
2023-04-01T15:44:50.930Z,97126.31
2023-04-01T15:47:26.944Z,97135.31
2023-04-01T15:50:13.981Z,97136.50
2023-04-01T15:53:02.448Z,97133.25
2023-04-01T15:55:35.007Z,97145.44
2023-04-01T15:58:17.728Z,97131.44
2023-04-01T16:00:47.880Z,97144.38
2023-04-01T16:03:37.983Z,97136.31
2023-04-01T16:06:10.484Z,97143.13
2023-04-01T16:09:04.096Z,97145.75
2023-04-01T16:12:08.863Z,97154.22
2023-04-01T16:15:04.457Z,97152.88
2023-04-01T16:17:38.452Z,97153.94
2023-04-01T16:20:47.029Z,97151.00
2023-04-01T16:23:37.525Z,97153.22
2023-04-01T16:26:09.503Z,97159.69
2023-04-01T16:28:58.911Z,97161.53
2023-04-01T16:31:45.031Z,97157.06
2023-04-01T16:34:21.702Z,97170.38
2023-04-01T16:36:54.267Z,97173.81
2023-04-01T16:39:37.350Z,97171.63
2023-04-01T16:42:25.528Z,97180.03
2023-04-01T16:45:03.360Z,97173.09
2023-04-01T16:47:37.477Z,97183.16
2023-04-01T16:50:20.875Z,97185.59
2023-04-01T16:53:12.379Z,97186.63
2023-04-01T16:55:54.052Z,97180.53
2023-04-01T16:58:33.983Z,97184.28
2023-04-01T17:01:05.598Z,97188.28
2023-04-01T17:03:44.673Z,97194.75
2023-04-01T17:06:51.399Z,97196.28
2023-04-01T17:09:18.030Z,97194.75
2023-04-01T17:12:03.380Z,97185.72
2023-04-01T17:14:37.846Z,97185.09
2023-04-01T17:17:23.292Z,97186.75
2023-04-01T17:20:41.285Z,97177.13
2023-04-01T17:23:15.428Z,97183.06
2023-04-01T17:25:48.578Z,97185.84
2023-04-01T17:28:56.190Z,97198.84
2023-04-01T17:31:44.444Z,97198.50
2023-04-01T17:34:42.568Z,97196.16
2023-04-01T17:37:46.950Z,97200.00
2023-04-01T17:40:21.144Z,97199.09
2023-04-01T17:43:01.798Z,97205.69
2023-04-01T17:45:40.426Z,97206.84
2023-04-01T17:48:07.085Z,97217.63
2023-04-01T17:51:08.989Z,97237.09
2023-04-01T17:53:46.982Z,97230.94
2023-04-01T17:56:38.120Z,97240.88
2023-04-01T17:59:32.142Z,97241.47
2023-04-01T18:02:08.277Z,97253.22
2023-04-01T18:04:45.501Z,97249.25
2023-04-01T18:07:33.384Z,97257.81
2023-04-01T18:10:30.951Z,97265.38
2023-04-01T18:13:00.271Z,97268.09
2023-04-01T18:15:37.070Z,97266.00
2023-04-01T18:18:31.024Z,97258.88
2023-04-01T18:21:45.508Z,97272.38
2023-04-01T18:24:27.803Z,97268.03
2023-04-01T18:27:04.247Z,97267.28
2023-04-01T18:30:03.258Z,97267.75
2023-04-01T18:32:38.316Z,97270.78
2023-04-01T18:35:24.816Z,97277.63
2023-04-01T18:38:13.016Z,97278.72
2023-04-01T18:40:47.120Z,97285.22
2023-04-01T18:43:41.693Z,97278.63
2023-04-01T18:46:19.534Z,97287.19
2023-04-01T18:49:01.687Z,97288.84
2023-04-01T18:51:38.915Z,97297.59
2023-04-01T18:54:24.216Z,97296.09
2023-04-01T18:56:51.172Z,97297.28
2023-04-01T18:59:29.736Z,97302.34
2023-04-01T19:02:19.134Z,97306.03
2023-04-01T19:05:31.639Z,97311.75
2023-04-01T19:08:18.038Z,97319.19
2023-04-01T19:10:56.600Z,97324.09
2023-04-01T19:13:33.787Z,97317.06
2023-04-01T19:16:21.900Z,97321.34
2023-04-01T19:18:56.769Z,97326.47
2023-04-01T19:21:58.924Z,97317.25
2023-04-01T19:24:50.842Z,97319.03
2023-04-01T19:27:29.478Z,97325.16
2023-04-01T19:30:14.604Z,97316.34
2023-04-01T19:33:04.415Z,97318.47
2023-04-01T19:35:37.469Z,97315.63
2023-04-01T19:38:06.408Z,97316.66
2023-04-01T19:40:51.414Z,97316.53
2023-04-01T19:43:36.792Z,97325.44
2023-04-01T19:46:13.250Z,97322.38
2023-04-01T19:49:08.737Z,97320.31
2023-04-01T19:51:44.920Z,97330.06
2023-04-01T19:54:20.911Z,97326.44
2023-04-01T19:57:26.219Z,97336.31
2023-04-01T20:00:23.627Z,97343.88
2023-04-01T20:03:07.001Z,97343.41
2023-04-01T20:05:45.223Z,97340.50
2023-04-01T20:08:34.936Z,97344.09
2023-04-01T20:11:46.164Z,97356.50
2023-04-01T20:14:15.683Z,97347.91
2023-04-01T20:16:54.473Z,97355.03
2023-04-01T20:19:43.087Z,97354.44
2023-04-01T20:22:23.677Z,97359.75
2023-04-01T20:24:50.513Z,97361.31
2023-04-01T20:27:22.046Z,97360.88
2023-04-01T20:30:16.796Z,97365.81
2023-04-01T20:33:00.092Z,97356.59
2023-04-01T20:35:50.145Z,97364.88
2023-04-01T20:39:10.134Z,97367.41
2023-04-01T20:41:48.556Z,97372.31
2023-04-01T20:44:21.555Z,97374.06
2023-04-01T20:47:12.502Z,97379.50
2023-04-01T20:50:07.377Z,97379.44
2023-04-01T20:52:41.685Z,97386.00
2023-04-01T20:55:21.150Z,97391.78
2023-04-01T20:58:02.261Z,97389.84
2023-04-01T21:00:53.314Z,97388.13
2023-04-01T21:03:27.934Z,97391.50
2023-04-01T21:06:33.159Z,97398.91
2023-04-01T21:09:15.405Z,97395.72
2023-04-01T21:11:57.245Z,97399.63
2023-04-01T21:14:59.577Z,97402.69
2023-04-01T21:17:54.516Z,97402.59
2023-04-01T21:20:58.421Z,97400.84
2023-04-01T21:23:43.885Z,97399.38
2023-04-01T21:26:28.915Z,97405.41
2023-04-01T21:29:20.491Z,97403.69
2023-04-01T21:32:00.471Z,97410.63
2023-04-01T21:39:16.044Z,97418.81
2023-04-01T21:41:52.490Z,97416.91
2023-04-01T21:44:31.125Z,97421.28
2023-04-01T21:47:18.605Z,97425.81
2023-04-01T21:50:22.843Z,97422.59
2023-04-01T21:53:13.626Z,97430.97
2023-04-01T21:55:46.350Z,97432.31
2023-04-01T21:58:26.101Z,97438.25
2023-04-01T22:01:42.039Z,97433.16
2023-04-01T22:04:27.571Z,97433.88
2023-04-01T22:06:58.735Z,97441.41
2023-04-01T22:09:42.282Z,97447.88
2023-04-01T22:12:19.025Z,97445.25
2023-04-01T22:15:07.369Z,97439.97
2023-04-01T22:17:47.634Z,97445.28
2023-04-01T22:20:36.019Z,97447.88
2023-04-01T22:23:19.718Z,97451.09
2023-04-01T22:26:04.066Z,97445.72
2023-04-01T22:28:37.377Z,97447.59
2023-04-01T22:31:05.596Z,97446.22
2023-04-01T22:33:56.990Z,97454.75
2023-04-01T22:36:42.677Z,97459.31
2023-04-01T22:39:33.245Z,97453.16
2023-04-01T22:42:35.065Z,97457.19
2023-04-01T22:45:13.757Z,97460.00
2023-04-01T22:48:02.934Z,97459.97
2023-04-01T22:51:10.049Z,97469.06
2023-04-01T22:54:27.741Z,97463.31
2023-04-01T22:56:59.061Z,97470.19
2023-04-01T22:59:30.958Z,97472.19
2023-04-01T23:02:01.048Z,97467.63
2023-04-01T23:04:33.677Z,97472.31
2023-04-01T23:07:17.369Z,97478.03
2023-04-01T23:09:44.248Z,97475.69
2023-04-01T23:12:14.043Z,97476.09
2023-04-01T23:14:44.987Z,97485.03
2023-04-01T23:17:35.738Z,97482.97
2023-04-01T23:20:23.462Z,97481.97
2023-04-01T23:23:41.299Z,97492.03
2023-04-01T23:26:13.686Z,97492.97
2023-04-01T23:29:00.339Z,97500.63
2023-04-01T23:31:32.848Z,97495.63
2023-04-01T23:34:23.092Z,97503.13
2023-04-01T23:36:56.347Z,97503.88
2023-04-01T23:39:38.858Z,97498.88
2023-04-01T23:42:08.440Z,97503.16
2023-04-01T23:44:36.390Z,97511.94
2023-04-01T23:47:04.427Z,97510.31
2023-04-01T23:49:30.758Z,97509.25
2023-04-01T23:51:59.836Z,97509.44
2023-04-01T23:54:34.760Z,97510.31
2023-04-01T23:57:05.571Z,97513.81
2023-04-01T23:59:35.894Z,97507.41
